Vankleek Hill, Canada
Current Conditions -  °F | °C
As of 10:00 PM on Friday 24 Oct 2014 (Local Time) from CYMX Reporting Station
Scattered Clouds Scattered Clouds  
Wind Chill: 46°   Ceiling: Unl
Heat Index: 46°   Visibility: 25mi
Dew Point: 41°   Wind: 3mph
Humidity: 81%   Direction: 260°W
Pressure: 29.81"   Gusts: NA
Location:  45.52°N, 74.65°W
Report Text: CYMX 250200Z 26003KT 230V300 25SM FEW110 SCT150 08/05 A2981 RMK AC2AC2 SLP098
Loading
Personal Weather Stations






























Interactive Weather Map
Tropical Storm Tracking
New forecast layout! Learn more

10-Day Weather Forecast

Advertisements
Track Severe Weather on mobile